createdAt,value
2019-02-22T00:00:44.142Z,10.64
2019-02-22T00:03:12.541Z,10.65
2019-02-22T00:05:40.851Z,10.63
2019-02-22T00:08:09.149Z,10.60
2019-02-22T00:10:37.475Z,10.62
2019-02-22T00:13:05.779Z,10.60
2019-02-22T00:15:36.301Z,10.57
2019-02-22T00:18:04.175Z,10.58
2019-02-22T00:20:32.812Z,10.54
2019-02-22T00:23:01.109Z,10.50
2019-02-22T00:25:29.399Z,10.54
2019-02-22T00:27:57.748Z,10.57
2019-02-22T00:30:26.157Z,10.59
2019-02-22T00:32:54.826Z,10.58
2019-02-22T00:35:23.155Z,10.59
2019-02-22T00:37:51.476Z,10.60
2019-02-22T00:40:20.036Z,10.63
2019-02-22T00:42:50.265Z,10.60
2019-02-22T00:45:18.763Z,10.60
2019-02-22T00:47:47.093Z,10.54
2019-02-22T00:50:15.420Z,10.54
2019-02-22T00:52:43.791Z,10.56
2019-02-22T00:55:12.104Z,10.55
2019-02-22T00:57:40.482Z,10.53
2019-02-22T01:00:09.959Z,10.51
2019-02-22T01:02:38.263Z,10.54
2019-02-22T01:05:06.869Z,10.57
2019-02-22T01:07:35.175Z,10.58
2019-02-22T01:10:03.883Z,10.56
2019-02-22T01:12:32.430Z,10.55
2019-02-22T01:15:01.031Z,10.56
2019-02-22T01:17:29.330Z,10.52
2019-02-22T01:19:57.671Z,10.52
2019-02-22T01:22:25.979Z,10.53
2019-02-22T01:24:54.302Z,10.53
2019-02-22T01:27:22.598Z,10.53
2019-02-22T01:29:50.896Z,10.52
2019-02-22T01:32:19.216Z,10.54
2019-02-22T01:34:47.522Z,10.55
2019-02-22T01:37:16.153Z,10.54
2019-02-22T01:39:44.446Z,10.52
2019-02-22T01:42:12.769Z,10.47
2019-02-22T01:44:41.395Z,10.47
2019-02-22T01:47:09.783Z,10.49
2019-02-22T01:49:38.441Z,10.50
2019-02-22T01:52:06.737Z,10.51
2019-02-22T01:54:35.058Z,10.50
2019-02-22T01:57:03.353Z,10.50
2019-02-22T01:59:31.660Z,10.51
2019-02-22T02:01:59.984Z,10.53
2019-02-22T02:04:28.301Z,10.55
2019-02-22T02:06:56.889Z,10.56
2019-02-22T02:09:25.235Z,10.56
2019-02-22T02:11:53.513Z,10.56
2019-02-22T02:14:21.830Z,10.56
2019-02-22T02:16:50.146Z,10.55
2019-02-22T02:19:18.522Z,10.56
2019-02-22T02:21:47.096Z,10.56
2019-02-22T02:24:15.412Z,10.53
2019-02-22T02:26:43.718Z,10.54
2019-02-22T02:29:12.050Z,10.54
2019-02-22T02:31:40.366Z,10.53
2019-02-22T02:34:08.950Z,10.51
2019-02-22T02:36:37.258Z,10.49
2019-02-22T02:39:07.987Z,10.50
2019-02-22T02:41:36.344Z,10.51
2019-02-22T02:44:04.675Z,10.51
2019-02-22T02:46:33.076Z,10.52
2019-02-22T02:49:01.404Z,10.50
2019-02-22T02:51:29.742Z,10.46
2019-02-22T02:53:58.055Z,10.45
2019-02-22T02:56:26.368Z,10.43
2019-02-22T02:58:54.695Z,10.44
2019-02-22T03:01:23.280Z,10.41
2019-02-22T03:03:51.598Z,10.44
2019-02-22T03:06:21.586Z,10.46
2019-02-22T03:08:49.898Z,10.45
2019-02-22T03:11:21.086Z,10.46
2019-02-22T03:13:48.249Z,10.44
2019-02-22T03:16:16.623Z,10.45
2019-02-22T03:18:44.930Z,10.47
2019-02-22T03:21:13.244Z,10.47
2019-02-22T03:23:41.554Z,10.47
2019-02-22T03:26:09.981Z,10.47
2019-02-22T03:28:38.621Z,10.46
2019-02-22T03:31:06.922Z,10.47
2019-02-22T03:33:35.565Z,10.45
2019-02-22T03:36:03.861Z,10.45
2019-02-22T03:38:32.283Z,10.45
2019-02-22T03:41:00.902Z,10.45
2019-02-22T03:43:29.253Z,10.45
2019-02-22T03:45:57.541Z,10.44
2019-02-22T03:48:25.879Z,10.44
2019-02-22T03:50:54.172Z,10.45
2019-02-22T03:53:30.437Z,10.44
2019-02-22T03:55:58.718Z,10.45
2019-02-22T03:58:27.042Z,10.45
2019-02-22T04:00:55.356Z,10.44
2019-02-22T04:03:23.649Z,10.43
2019-02-22T04:05:51.974Z,10.39
2019-02-22T04:08:20.271Z,10.38
2019-02-22T04:10:48.583Z,10.39
2019-02-22T04:13:16.955Z,10.39
2019-02-22T04:15:45.452Z,10.37
2019-02-22T04:18:13.755Z,10.37
2019-02-22T04:20:42.088Z,10.36
2019-02-22T04:23:10.423Z,10.35
2019-02-22T04:25:38.993Z,10.34
2019-02-22T04:28:07.400Z,10.34
2019-02-22T04:30:37.829Z,10.35
2019-02-22T04:33:05.810Z,10.33
2019-02-22T04:35:34.130Z,10.34
2019-02-22T04:38:02.432Z,10.32
2019-02-22T04:40:30.742Z,10.31
2019-02-22T04:42:59.056Z,10.29
2019-02-22T04:45:27.364Z,10.28
2019-02-22T04:47:55.696Z,10.30
2019-02-22T04:50:23.983Z,10.30
2019-02-22T04:52:52.314Z,10.32
2019-02-22T04:55:20.647Z,10.29
2019-02-22T04:57:49.252Z,10.25
2019-02-22T05:00:17.839Z,10.22
2019-02-22T05:02:46.267Z,10.19
2019-02-22T05:05:15.425Z,10.17
2019-02-22T05:07:43.752Z,10.17
2019-02-22T05:10:12.069Z,10.16
2019-02-22T05:12:40.405Z,10.17
2019-02-22T05:15:12.579Z,10.18
2019-02-22T05:17:38.739Z,10.16
2019-02-22T05:20:07.058Z,10.17
2019-02-22T05:22:35.377Z,10.17
2019-02-22T05:25:04.875Z,10.19
2019-02-22T05:27:33.184Z,10.22
2019-02-22T05:30:01.509Z,10.22
2019-02-22T05:32:29.805Z,10.22
2019-02-22T05:34:58.128Z,10.20
2019-02-22T05:37:26.451Z,10.20
2019-02-22T05:39:55.187Z,10.21
2019-02-22T05:42:23.534Z,10.23
2019-02-22T05:44:51.785Z,10.25
2019-02-22T05:47:20.143Z,10.26
2019-02-22T05:49:48.506Z,10.26
2019-02-22T05:52:16.902Z,10.26
2019-02-22T05:54:45.205Z,10.27
2019-02-22T05:57:14.412Z,10.26
2019-02-22T05:59:42.818Z,10.23
2019-02-22T06:02:14.393Z,10.24
2019-02-22T06:04:41.548Z,10.24
2019-02-22T06:07:09.891Z,10.25
2019-02-22T06:09:38.199Z,10.25
2019-02-22T06:12:06.565Z,10.25
2019-02-22T06:14:35.244Z,10.26
2019-02-22T06:17:13.886Z,10.27
2019-02-22T06:19:33.600Z,10.25
2019-02-22T06:22:01.904Z,10.25
2019-02-22T06:24:30.211Z,10.26
2019-02-22T06:26:58.504Z,10.25
2019-02-22T06:29:26.859Z,10.25
2019-02-22T06:31:55.626Z,10.25
2019-02-22T06:34:24.180Z,10.24
2019-02-22T06:37:01.651Z,10.23
2019-02-22T06:39:23.130Z,10.23
2019-02-22T06:41:51.464Z,10.24
2019-02-22T06:44:19.773Z,10.24
2019-02-22T06:46:48.080Z,10.23
2019-02-22T06:49:16.399Z,10.20
2019-02-22T06:51:44.700Z,10.21
2019-02-22T06:54:13.274Z,10.22
2019-02-22T06:56:41.599Z,10.21
2019-02-22T06:59:09.897Z,10.23
2019-02-22T07:01:38.209Z,10.23
2019-02-22T07:04:06.624Z,10.23
2019-02-22T07:06:34.948Z,10.23
2019-02-22T07:09:06.851Z,10.25
2019-02-22T07:11:37.898Z,10.27
2019-02-22T07:14:06.562Z,10.29
2019-02-22T07:16:34.867Z,10.32
2019-02-22T07:19:03.179Z,10.35
2019-02-22T07:21:43.760Z,10.40
2019-02-22T07:24:02.694Z,10.40
2019-02-22T07:26:31.108Z,10.42
2019-02-22T07:28:59.421Z,10.43
2019-02-22T07:31:27.712Z,10.45
2019-02-22T07:33:56.034Z,10.47
2019-02-22T07:36:24.408Z,10.52
2019-02-22T07:38:52.990Z,10.57
2019-02-22T07:41:21.290Z,10.59
2019-02-22T07:43:49.612Z,10.62
2019-02-22T07:46:17.911Z,10.63
2019-02-22T07:48:46.225Z,10.67
2019-02-22T07:51:14.528Z,10.69
2019-02-22T07:53:42.839Z,10.72
2019-02-22T07:56:11.186Z,10.72
2019-02-22T07:58:39.576Z,10.75
2019-02-22T08:01:07.888Z,10.75
2019-02-22T08:03:37.395Z,10.76
2019-02-22T08:06:05.834Z,10.80
2019-02-22T08:08:34.132Z,10.83
2019-02-22T08:11:02.501Z,10.90
2019-02-22T08:13:30.864Z,10.92
2019-02-22T08:15:59.499Z,10.98
2019-02-22T08:18:27.839Z,11.02
2019-02-22T08:20:56.146Z,11.07
2019-02-22T08:23:24.468Z,11.11
2019-02-22T08:25:53.135Z,11.13
2019-02-22T08:28:21.458Z,11.07
2019-02-22T08:30:49.771Z,11.12
2019-02-22T08:33:18.110Z,11.11
2019-02-22T08:35:46.416Z,11.15
2019-02-22T08:38:14.746Z,11.19
2019-02-22T08:40:43.053Z,11.22
2019-02-22T08:43:11.382Z,11.28
2019-02-22T08:45:39.685Z,11.37
2019-02-22T08:48:08.327Z,11.44
2019-02-22T08:50:36.638Z,11.54
2019-02-22T08:53:04.945Z,11.65
2019-02-22T08:55:33.254Z,11.75
2019-02-22T08:58:01.564Z,11.78
2019-02-22T09:00:29.921Z,11.83
2019-02-22T09:02:58.214Z,11.86
2019-02-22T09:05:26.889Z,11.95
2019-02-22T09:07:55.198Z,12.08
2019-02-22T09:10:23.514Z,12.13
2019-02-22T09:12:51.829Z,12.10
2019-02-22T09:15:20.186Z,12.10
2019-02-22T09:17:48.479Z,12.08
2019-02-22T09:20:16.806Z,12.08
2019-02-22T09:22:45.111Z,12.12
2019-02-22T09:25:13.434Z,12.16
2019-02-22T09:27:41.730Z,12.16
2019-02-22T09:30:11.871Z,12.20
2019-02-22T09:32:40.198Z,12.13
2019-02-22T09:35:10.717Z,12.15
2019-02-22T09:37:39.092Z,12.21
2019-02-22T09:40:10.144Z,12.21
2019-02-22T09:42:38.902Z,12.19
2019-02-22T09:45:10.148Z,12.21
2019-02-22T09:47:38.477Z,12.25
2019-02-22T09:50:09.826Z,12.36
2019-02-22T09:52:38.158Z,12.48
2019-02-22T09:55:08.998Z,12.56
2019-02-22T09:57:37.566Z,12.56
2019-02-22T10:00:14.669Z,12.55
2019-02-22T10:02:44.931Z,12.59
2019-02-22T10:05:13.101Z,12.66
2019-02-22T10:07:41.395Z,12.73
2019-02-22T10:10:11.719Z,12.76
2019-02-22T10:12:40.026Z,12.83
2019-02-22T10:15:09.489Z,12.89
2019-02-22T10:17:37.797Z,12.85
2019-02-22T10:20:08.883Z,12.92
2019-02-22T10:22:37.191Z,13.05
2019-02-22T10:25:06.723Z,13.10
2019-02-22T10:27:35.318Z,13.07
2019-02-22T10:30:04.824Z,13.06
2019-02-22T10:32:33.157Z,12.89
2019-02-22T10:35:01.493Z,12.79
2019-02-22T10:37:29.800Z,12.78
2019-02-22T10:39:58.107Z,12.78
2019-02-22T10:42:26.723Z,12.72
2019-02-22T10:44:55.029Z,12.73
2019-02-22T10:47:23.355Z,12.73
2019-02-22T10:49:51.953Z,12.65
2019-02-22T10:52:20.287Z,12.53
2019-02-22T10:54:48.587Z,12.52
2019-02-22T10:57:16.898Z,12.57
2019-02-22T10:59:45.212Z,12.57
2019-02-22T11:02:13.542Z,12.56
2019-02-22T11:04:41.865Z,12.56
2019-02-22T11:07:10.176Z,12.65
2019-02-22T11:09:38.755Z,12.84
2019-02-22T11:12:07.098Z,13.11
2019-02-22T11:14:35.403Z,13.15
2019-02-22T11:17:03.771Z,13.18
2019-02-22T11:19:32.400Z,13.17
2019-02-22T11:22:01.080Z,13.20
2019-02-22T11:24:29.386Z,13.30
2019-02-22T11:26:58.047Z,13.30
2019-02-22T11:29:26.644Z,13.31
2019-02-22T11:31:55.064Z,13.35
2019-02-22T11:34:23.378Z,13.36
2019-02-22T11:36:51.708Z,13.25
2019-02-22T11:39:20.773Z,13.13
2019-02-22T11:41:49.087Z,13.04
2019-02-22T11:44:17.398Z,12.85
2019-02-22T11:46:45.716Z,12.74
2019-02-22T11:49:14.047Z,12.75
2019-02-22T11:51:42.366Z,12.85
2019-02-22T11:54:11.034Z,12.91
2019-02-22T11:56:39.329Z,13.02
2019-02-22T11:59:07.669Z,13.08
2019-02-22T12:01:36.035Z,13.05
2019-02-22T12:04:04.439Z,12.98
2019-02-22T12:06:32.728Z,13.01
2019-02-22T12:09:01.070Z,12.90
2019-02-22T12:11:29.361Z,12.85
2019-02-22T12:13:57.691Z,12.97
2019-02-22T12:16:26.016Z,13.06
2019-02-22T12:18:54.335Z,13.17
2019-02-22T12:21:23.194Z,13.22
2019-02-22T12:23:53.014Z,13.26
2019-02-22T12:26:21.423Z,13.26
2019-02-22T12:28:49.734Z,13.27
2019-02-22T12:31:18.052Z,13.21
2019-02-22T12:33:46.437Z,13.15
2019-02-22T12:36:14.755Z,13.19
2019-02-22T12:38:43.087Z,13.32
2019-02-22T12:41:11.466Z,13.52
2019-02-22T12:43:39.814Z,13.68
2019-02-22T12:46:08.148Z,13.79
2019-02-22T12:48:36.515Z,13.74
2019-02-22T12:51:04.843Z,13.71
2019-02-22T12:53:33.138Z,13.70
2019-02-22T12:56:01.457Z,13.62
2019-02-22T12:58:29.775Z,13.56
2019-02-22T13:00:58.092Z,13.50
2019-02-22T13:03:26.391Z,13.37
2019-02-22T13:05:54.729Z,13.22
2019-02-22T13:08:23.460Z,13.07
2019-02-22T13:10:51.795Z,13.04
2019-02-22T13:13:20.108Z,13.13
2019-02-22T13:15:48.413Z,13.19
2019-02-22T13:18:16.725Z,13.21
2019-02-22T13:20:45.040Z,13.27
2019-02-22T13:23:13.404Z,13.36
2019-02-22T13:25:41.717Z,13.40
2019-02-22T13:28:10.338Z,13.42
2019-02-22T13:30:38.939Z,13.51
2019-02-22T13:33:07.247Z,13.52
2019-02-22T13:35:35.558Z,13.53
2019-02-22T13:38:04.120Z,13.53
2019-02-22T13:40:32.557Z,13.43
2019-02-22T13:43:00.885Z,13.35
2019-02-22T13:45:29.218Z,13.27
2019-02-22T13:47:57.542Z,13.26
2019-02-22T13:50:25.858Z,13.32
2019-02-22T13:52:54.217Z,13.32
2019-02-22T13:55:22.831Z,13.25
2019-02-22T13:57:51.135Z,13.29
2019-02-22T14:00:20.284Z,13.28
2019-02-22T14:02:48.699Z,13.31
2019-02-22T14:05:17.101Z,13.27
2019-02-22T14:07:55.469Z,13.26
2019-02-22T14:10:24.493Z,13.17
2019-02-22T14:12:53.129Z,13.10
2019-02-22T14:15:22.021Z,13.12
2019-02-22T14:17:50.383Z,13.15
2019-02-22T14:20:19.390Z,13.21
2019-02-22T14:22:49.319Z,13.29
2019-02-22T14:25:17.715Z,13.32
2019-02-22T14:27:46.373Z,13.18
2019-02-22T14:30:18.206Z,13.07
2019-02-22T14:32:46.686Z,13.03
2019-02-22T14:35:14.989Z,12.92
2019-02-22T14:37:43.368Z,12.91
2019-02-22T14:40:12.753Z,12.86
2019-02-22T14:42:41.097Z,12.87
2019-02-22T14:45:10.740Z,12.93
2019-02-22T14:47:39.153Z,12.91
2019-02-22T14:50:13.172Z,12.85
2019-02-22T14:52:41.476Z,12.77
2019-02-22T14:55:10.070Z,12.72
2019-02-22T14:57:38.367Z,12.65
2019-02-22T15:00:12.300Z,12.61
2019-02-22T15:02:40.625Z,12.53
2019-02-22T15:05:10.072Z,12.41
2019-02-22T15:07:38.392Z,12.39
2019-02-22T15:10:08.990Z,12.32
2019-02-22T15:12:37.297Z,12.29
2019-02-22T15:15:21.087Z,12.28
2019-02-22T15:17:51.039Z,12.28
2019-02-22T15:20:19.338Z,12.31
2019-02-22T15:22:47.656Z,12.32
2019-02-22T15:25:17.439Z,12.34
2019-02-22T15:27:46.069Z,12.34
2019-02-22T15:30:16.095Z,12.30
2019-02-22T15:32:44.406Z,12.29
2019-02-22T15:35:15.337Z,12.22
2019-02-22T15:37:43.683Z,12.18
2019-02-22T15:40:12.770Z,12.20
2019-02-22T15:42:41.098Z,12.18
2019-02-22T15:45:17.697Z,12.14
2019-02-22T15:47:48.637Z,12.12
2019-02-22T15:50:16.979Z,12.10
2019-02-22T15:52:46.177Z,12.12
2019-02-22T15:55:14.614Z,12.08
2019-02-22T15:57:42.984Z,12.05
2019-02-22T16:00:14.771Z,12.04
2019-02-22T16:02:43.099Z,12.02
2019-02-22T16:05:13.109Z,12.03
2019-02-22T16:07:44.662Z,12.03
2019-02-22T16:10:11.638Z,12.03
2019-02-22T16:12:40.035Z,12.01
2019-02-22T16:15:10.110Z,11.98
2019-02-22T16:17:38.479Z,11.93
2019-02-22T16:20:08.133Z,11.94
2019-02-22T16:22:36.444Z,11.94
2019-02-22T16:25:06.294Z,11.90
2019-02-22T16:27:34.551Z,11.85
2019-02-22T16:30:03.080Z,11.79
2019-02-22T16:32:31.441Z,11.77
2019-02-22T16:34:59.765Z,11.79
2019-02-22T16:37:28.067Z,11.82
2019-02-22T16:39:56.379Z,11.85
2019-02-22T16:42:24.692Z,11.85
2019-02-22T16:44:53.000Z,11.81
2019-02-22T16:47:21.618Z,11.76
2019-02-22T16:49:50.319Z,11.77
2019-02-22T16:52:18.613Z,11.74
2019-02-22T16:54:46.909Z,11.74
2019-02-22T16:57:15.559Z,11.74
2019-02-22T16:59:44.114Z,11.64
2019-02-22T17:02:12.523Z,11.58
2019-02-22T17:04:40.817Z,11.55
2019-02-22T17:07:09.219Z,11.54
2019-02-22T17:09:37.654Z,11.49
2019-02-22T17:12:06.953Z,11.45
2019-02-22T17:14:35.331Z,11.43
2019-02-22T17:17:03.764Z,11.40
2019-02-22T17:19:32.067Z,11.38
2019-02-22T17:22:00.670Z,11.34
2019-02-22T17:24:28.978Z,11.33
2019-02-22T17:26:57.522Z,11.34
2019-02-22T17:29:25.947Z,11.35
2019-02-22T17:31:54.243Z,11.35
2019-02-22T17:34:22.574Z,11.37
2019-02-22T17:36:50.875Z,11.40
2019-02-22T17:39:19.257Z,11.40
2019-02-22T17:41:47.591Z,11.38
2019-02-22T17:44:16.057Z,11.35
2019-02-22T17:46:44.384Z,11.34
2019-02-22T17:49:12.743Z,11.32
2019-02-22T17:51:41.077Z,11.33
2019-02-22T17:54:09.473Z,11.32
2019-02-22T17:56:37.785Z,11.30
2019-02-22T17:59:06.348Z,11.28
2019-02-22T18:01:34.780Z,11.24
2019-02-22T18:04:03.094Z,11.20
2019-02-22T18:06:31.783Z,11.18
2019-02-22T18:09:00.215Z,11.14
2019-02-22T18:11:28.589Z,11.09
2019-02-22T18:13:57.040Z,11.07
2019-02-22T18:16:25.472Z,11.03
2019-02-22T18:18:54.091Z,10.99
2019-02-22T18:21:22.794Z,10.94
2019-02-22T18:23:51.088Z,10.89
2019-02-22T18:26:19.838Z,10.85
2019-02-22T18:28:48.146Z,10.81
2019-02-22T18:31:16.524Z,10.79
2019-02-22T18:33:44.883Z,10.79
2019-02-22T18:36:13.185Z,10.80
2019-02-22T18:38:41.528Z,10.85
2019-02-22T18:41:09.832Z,10.82
2019-02-22T18:43:38.155Z,10.78
2019-02-22T18:46:06.772Z,10.73
2019-02-22T18:48:35.187Z,10.69
2019-02-22T18:51:03.477Z,10.62
2019-02-22T18:53:31.793Z,10.58
2019-02-22T18:56:00.112Z,10.54
2019-02-22T18:58:28.504Z,10.53
2019-02-22T19:00:56.822Z,10.44
2019-02-22T19:03:25.167Z,10.38
2019-02-22T19:05:53.473Z,10.35
2019-02-22T19:08:31.835Z,10.29
2019-02-22T19:10:52.077Z,10.23
2019-02-22T19:13:20.391Z,10.17
2019-02-22T19:15:48.695Z,10.11
2019-02-22T19:18:17.264Z,10.08
2019-02-22T19:20:45.574Z,10.00
2019-02-22T19:23:13.901Z,9.92
2019-02-22T19:25:42.304Z,9.88
2019-02-22T19:28:10.958Z,9.86
2019-02-22T19:30:39.260Z,9.82
2019-02-22T19:33:07.585Z,9.76
2019-02-22T19:35:35.898Z,9.72
2019-02-22T19:38:04.648Z,9.64
2019-02-22T19:40:32.964Z,9.60
2019-02-22T19:43:01.635Z,9.58
2019-02-22T19:45:29.926Z,9.56
2019-02-22T19:47:58.274Z,9.52
2019-02-22T19:50:26.855Z,9.47
2019-02-22T19:52:55.186Z,9.44
2019-02-22T19:55:23.741Z,9.41
2019-02-22T19:57:52.043Z,9.37
2019-02-22T20:00:20.512Z,9.32
2019-02-22T20:02:49.177Z,9.32
2019-02-22T20:05:17.752Z,9.29
2019-02-22T20:07:46.063Z,9.24
2019-02-22T20:10:21.516Z,9.17
2019-02-22T20:12:50.162Z,9.11
2019-02-22T20:15:18.623Z,9.06
2019-02-22T20:17:54.222Z,9.07
2019-02-22T20:20:17.891Z,9.05
2019-02-22T20:22:46.299Z,9.07
2019-02-22T20:25:15.134Z,9.09
2019-02-22T20:27:43.464Z,9.04
2019-02-22T20:30:17.065Z,9.02
2019-02-22T20:32:45.388Z,8.95
2019-02-22T20:35:16.528Z,8.89
2019-02-22T20:37:52.543Z,8.87
2019-02-22T20:40:15.166Z,8.86
2019-02-22T20:42:43.702Z,8.82
2019-02-22T20:45:12.668Z,8.74
2019-02-22T20:47:41.212Z,8.74
2019-02-22T20:50:14.370Z,8.71
2019-02-22T20:52:42.673Z,8.64
2019-02-22T20:55:11.435Z,8.60
2019-02-22T20:57:40.035Z,8.56
2019-02-22T21:00:19.639Z,8.53
2019-02-22T21:02:48.241Z,8.48
2019-02-22T21:05:16.534Z,8.45
2019-02-22T21:07:44.873Z,8.39
2019-02-22T21:10:17.860Z,8.44
2019-02-22T21:12:46.168Z,8.32
2019-02-22T21:15:14.706Z,8.26
2019-02-22T21:17:43.071Z,8.22
2019-02-22T21:20:16.882Z,8.24
2019-02-22T21:22:45.451Z,8.27
2019-02-22T21:25:13.814Z,8.21
2019-02-22T21:27:42.125Z,8.17
2019-02-22T21:30:12.971Z,8.12
2019-02-22T21:32:41.282Z,8.09
2019-02-22T21:35:10.429Z,8.08
2019-02-22T21:37:40.070Z,8.06
2019-02-22T21:40:10.247Z,8.00
2019-02-22T21:42:38.558Z,7.92
2019-02-22T21:45:10.224Z,7.86
2019-02-22T21:47:38.524Z,7.81
2019-02-22T21:50:15.027Z,7.76
2019-02-22T21:52:43.487Z,7.71
2019-02-22T21:55:13.027Z,7.70
2019-02-22T21:57:41.339Z,7.69
2019-02-22T22:00:21.653Z,7.70
2019-02-22T22:02:50.318Z,7.63
2019-02-22T22:05:19.007Z,7.59
2019-02-22T22:07:47.670Z,7.58
2019-02-22T22:10:16.189Z,7.57
2019-02-22T22:12:44.480Z,7.56
2019-02-22T22:15:14.220Z,7.60
2019-02-22T22:17:42.562Z,7.61
2019-02-22T22:20:11.223Z,7.57
2019-02-22T22:22:39.916Z,7.52
2019-02-22T22:25:10.930Z,7.48
2019-02-22T22:27:39.251Z,7.45
2019-02-22T22:30:10.355Z,7.42
2019-02-22T22:32:38.659Z,7.39
2019-02-22T22:35:11.621Z,7.27
2019-02-22T22:37:40.040Z,7.22
2019-02-22T22:40:10.131Z,7.23
2019-02-22T22:42:38.432Z,7.24
2019-02-22T22:45:11.991Z,7.24
2019-02-22T22:47:40.282Z,7.25
2019-02-22T22:50:11.407Z,7.26
2019-02-22T22:52:39.776Z,7.26
2019-02-22T22:55:09.662Z,7.23
2019-02-22T22:57:37.967Z,7.23
2019-02-22T23:00:30.946Z,7.21
2019-02-22T23:02:59.234Z,7.15
2019-02-22T23:05:27.563Z,7.08
2019-02-22T23:07:55.884Z,7.02
2019-02-22T23:10:24.205Z,6.95
2019-02-22T23:12:52.510Z,6.98
2019-02-22T23:15:20.819Z,6.97
2019-02-22T23:17:49.121Z,6.98
2019-02-22T23:20:17.427Z,6.99
2019-02-22T23:22:45.758Z,6.99
2019-02-22T23:25:14.156Z,6.99
2019-02-22T23:27:42.457Z,6.98
2019-02-22T23:30:11.159Z,6.91
2019-02-22T23:32:39.465Z,6.86
2019-02-22T23:35:07.800Z,6.84
2019-02-22T23:37:36.094Z,6.77
2019-02-22T23:40:04.950Z,6.75
2019-02-22T23:42:33.235Z,6.68
2019-02-22T23:45:01.562Z,6.65
2019-02-22T23:47:29.847Z,6.58
2019-02-22T23:49:58.167Z,6.58
2019-02-22T23:52:27.185Z,6.58
2019-02-22T23:54:55.500Z,6.60
2019-02-22T23:57:23.811Z,6.58
2019-02-22T23:59:52.255Z,6.54
